createdAt,value
2019-01-20T00:00:41.082Z,6.40
2019-01-20T00:01:41.132Z,8.70
2019-01-20T00:02:41.100Z,6.50
2019-01-20T00:03:41.246Z,4.30
2019-01-20T00:04:41.193Z,5.70
2019-01-20T00:05:41.285Z,6.30
2019-01-20T00:06:41.317Z,7.20
2019-01-20T00:07:41.372Z,6.70
2019-01-20T00:08:41.372Z,6.80
2019-01-20T00:09:41.467Z,7.20
2019-01-20T00:10:41.522Z,7.30
2019-01-20T00:11:41.509Z,7.30
2019-01-20T00:12:41.566Z,8.40
2019-01-20T00:13:41.635Z,7.40
2019-01-20T00:14:41.699Z,5.30
2019-01-20T00:15:41.714Z,6.10
2019-01-20T00:16:41.766Z,7.70
2019-01-20T00:17:41.842Z,9.80
2019-01-20T00:18:41.827Z,6.90
2019-01-20T00:19:41.937Z,7.80
2019-01-20T00:20:41.944Z,7.70
2019-01-20T00:21:42.008Z,7.20
2019-01-20T00:22:42.077Z,6.50
2019-01-20T00:23:42.114Z,7.50
2019-01-20T00:24:42.185Z,8.00
2019-01-20T00:25:42.229Z,6.60
2019-01-20T00:26:42.206Z,5.60
2019-01-20T00:27:42.318Z,5.80
2019-01-20T00:28:42.360Z,6.30
2019-01-20T00:29:42.381Z,6.70
2019-01-20T00:30:42.397Z,8.50
2019-01-20T00:31:42.504Z,6.50
2019-01-20T00:32:42.462Z,5.90
2019-01-20T00:33:42.524Z,8.30
2019-01-20T00:34:42.690Z,8.10
2019-01-20T00:35:42.617Z,6.90
2019-01-20T00:36:42.659Z,7.00
2019-01-20T00:37:42.744Z,7.20
2019-01-20T00:38:42.757Z,6.60
2019-01-20T00:39:42.840Z,6.50
2019-01-20T00:40:42.861Z,6.70
2019-01-20T00:41:42.899Z,5.30
2019-01-20T00:42:42.951Z,6.90
2019-01-20T00:43:42.984Z,5.60
2019-01-20T00:44:43.064Z,7.50
2019-01-20T00:45:43.125Z,9.00
2019-01-20T00:46:43.145Z,10.20
2019-01-20T00:47:43.213Z,7.10
2019-01-20T00:48:43.245Z,6.40
2019-01-20T00:49:43.283Z,8.10
2019-01-20T00:50:43.327Z,8.00
2019-01-20T00:51:43.381Z,6.90
2019-01-20T00:52:43.387Z,6.80
2019-01-20T00:53:43.425Z,6.60
2019-01-20T00:54:43.494Z,8.10
2019-01-20T00:55:43.638Z,8.00
2019-01-20T00:56:43.615Z,7.40
2019-01-20T00:57:43.610Z,5.60
2019-01-20T00:58:43.637Z,8.80
2019-01-20T00:59:43.749Z,7.90
2019-01-20T01:00:43.790Z,6.90
2019-01-20T01:01:43.855Z,6.90
2019-01-20T01:02:43.852Z,7.50
2019-01-20T01:03:43.939Z,6.30
2019-01-20T01:04:43.976Z,6.80
2019-01-20T01:05:44.060Z,8.10
2019-01-20T01:06:44.000Z,10.40
2019-01-20T01:07:44.108Z,6.40
2019-01-20T01:08:44.161Z,8.30
2019-01-20T01:09:44.216Z,7.60
2019-01-20T01:10:44.238Z,7.70
2019-01-20T01:11:44.268Z,6.80
2019-01-20T01:12:44.278Z,8.30
2019-01-20T01:13:44.362Z,5.90
2019-01-20T01:14:44.447Z,7.70
2019-01-20T01:15:44.501Z,6.70
2019-01-20T01:16:44.506Z,10.20
2019-01-20T01:17:44.567Z,10.90
2019-01-20T01:18:44.576Z,8.00
2019-01-20T01:19:44.617Z,9.90
2019-01-20T01:20:44.681Z,7.70
2019-01-20T01:21:44.754Z,8.40
2019-01-20T01:22:44.724Z,8.90
2019-01-20T01:23:44.791Z,7.40
2019-01-20T01:24:44.898Z,8.40
2019-01-20T01:25:44.899Z,7.50
2019-01-20T01:26:45.015Z,9.00
2019-01-20T01:27:44.951Z,8.40
2019-01-20T01:28:44.994Z,5.50
2019-01-20T01:29:45.039Z,7.70
2019-01-20T01:30:45.084Z,6.60
2019-01-20T01:31:45.130Z,6.90
2019-01-20T01:32:45.173Z,6.30
2019-01-20T01:33:45.251Z,8.40
2019-01-20T01:34:45.307Z,8.00
2019-01-20T01:35:45.343Z,6.50
2019-01-20T01:36:45.456Z,8.70
2019-01-20T01:37:45.468Z,9.10
2019-01-20T01:38:45.489Z,7.30
2019-01-20T01:39:45.566Z,6.70
2019-01-20T01:40:45.536Z,8.50
2019-01-20T01:41:45.580Z,6.90
2019-01-20T01:42:45.624Z,8.70
2019-01-20T01:43:45.671Z,7.10
2019-01-20T01:44:45.714Z,9.40
2019-01-20T01:45:45.833Z,8.50
2019-01-20T01:46:45.806Z,8.10
2019-01-20T01:47:45.851Z,7.20
2019-01-20T01:48:45.896Z,10.00
2019-01-20T01:49:45.944Z,10.30
2019-01-20T01:50:45.987Z,10.00
2019-01-20T01:51:46.031Z,6.00
2019-01-20T01:52:46.075Z,6.90
2019-01-20T01:53:46.121Z,7.40
2019-01-20T01:54:46.168Z,9.90
2019-01-20T01:55:46.212Z,7.60
2019-01-20T01:56:46.257Z,8.70
2019-01-20T01:57:46.303Z,10.60
2019-01-20T01:58:46.347Z,6.30
2019-01-20T01:59:46.393Z,6.70
2019-01-20T02:00:46.436Z,7.60
2019-01-20T02:01:46.482Z,8.90
2019-01-20T02:02:46.527Z,7.90
2019-01-20T02:03:46.573Z,6.20
2019-01-20T02:04:46.617Z,7.60
2019-01-20T02:05:46.663Z,7.70
2019-01-20T02:06:46.707Z,7.40
2019-01-20T02:07:46.753Z,7.10
2019-01-20T02:08:46.797Z,9.60
2019-01-20T02:09:46.843Z,8.00
2019-01-20T02:10:46.888Z,8.10
2019-01-20T02:11:47.213Z,8.40
2019-01-20T02:12:46.979Z,8.90
2019-01-20T02:13:47.022Z,8.30
2019-01-20T02:14:47.067Z,8.00
2019-01-20T02:15:47.112Z,8.90
2019-01-20T02:16:47.157Z,7.20
2019-01-20T02:17:47.203Z,8.70
2019-01-20T02:18:47.269Z,7.90
2019-01-20T02:19:47.294Z,8.40
2019-01-20T02:20:47.338Z,8.00
2019-01-20T02:21:47.384Z,7.90
2019-01-20T02:22:47.428Z,6.70
2019-01-20T02:23:47.472Z,8.60
2019-01-20T02:24:47.517Z,7.80
2019-01-20T02:25:47.562Z,7.90
2019-01-20T02:26:47.610Z,7.30
2019-01-20T02:27:47.653Z,6.10
2019-01-20T02:28:47.701Z,7.90
2019-01-20T02:29:47.741Z,8.60
2019-01-20T02:30:47.788Z,8.20
2019-01-20T02:31:47.833Z,7.90
2019-01-20T02:32:47.876Z,5.90
2019-01-20T02:33:47.922Z,7.10
2019-01-20T02:34:47.968Z,8.90
2019-01-20T02:35:48.013Z,10.10
2019-01-20T02:36:48.056Z,7.80
2019-01-20T02:37:48.102Z,7.40
2019-01-20T02:38:48.147Z,6.50
2019-01-20T02:39:48.192Z,7.00
2019-01-20T02:40:48.245Z,7.50
2019-01-20T02:41:55.034Z,7.80
2019-01-20T02:42:48.342Z,8.00
2019-01-20T02:43:48.372Z,9.50
2019-01-20T02:44:48.414Z,9.80
2019-01-20T02:45:48.476Z,8.80
2019-01-20T02:46:48.507Z,8.20
2019-01-20T02:47:48.551Z,7.90
2019-01-20T02:48:48.597Z,7.10
2019-01-20T02:49:48.644Z,8.60
2019-01-20T02:50:48.686Z,8.40
2019-01-20T02:51:48.730Z,6.90
2019-01-20T02:52:48.779Z,9.80
2019-01-20T02:53:48.823Z,8.90
2019-01-20T02:54:48.866Z,11.20
2019-01-20T02:55:48.911Z,9.10
2019-01-20T02:56:48.954Z,9.40
2019-01-20T02:57:49.000Z,10.50
2019-01-20T02:58:49.045Z,7.30
2019-01-20T02:59:49.090Z,9.40
2019-01-20T03:00:49.142Z,9.20
2019-01-20T03:01:49.179Z,8.90
2019-01-20T03:02:49.231Z,8.20
2019-01-20T03:03:49.271Z,8.90
2019-01-20T03:04:49.315Z,8.40
2019-01-20T03:05:49.363Z,7.60
2019-01-20T03:06:49.406Z,8.50
2019-01-20T03:07:49.454Z,8.00
2019-01-20T03:08:49.493Z,8.90
2019-01-20T03:09:49.542Z,9.50
2019-01-20T03:10:49.585Z,9.50
2019-01-20T03:11:49.639Z,7.60
2019-01-20T03:12:49.674Z,8.80
2019-01-20T03:13:49.718Z,11.50
2019-01-20T03:14:49.764Z,8.30
2019-01-20T03:15:49.813Z,9.70
2019-01-20T03:16:49.853Z,9.70
2019-01-20T03:17:49.902Z,7.80
2019-01-20T03:18:49.944Z,6.20
2019-01-20T03:19:49.987Z,9.00
2019-01-20T03:20:50.034Z,10.40
2019-01-20T03:21:50.078Z,8.40
2019-01-20T03:22:50.123Z,8.70
2019-01-20T03:23:50.170Z,9.60
2019-01-20T03:24:50.212Z,6.20
2019-01-20T03:25:50.257Z,7.90
2019-01-20T03:26:50.303Z,6.60
2019-01-20T03:27:50.348Z,8.00
2019-01-20T03:28:50.396Z,9.20
2019-01-20T03:29:50.437Z,10.20
2019-01-20T03:30:50.484Z,7.00
2019-01-20T03:31:50.528Z,9.10
2019-01-20T03:32:50.583Z,8.10
2019-01-20T03:33:50.618Z,8.30
2019-01-20T03:34:50.664Z,10.30
2019-01-20T03:35:50.707Z,8.70
2019-01-20T03:36:50.757Z,8.20
2019-01-20T03:37:50.797Z,9.20
2019-01-20T03:38:50.841Z,10.30
2019-01-20T03:39:50.886Z,8.80
2019-01-20T03:40:50.930Z,7.70
2019-01-20T03:41:50.975Z,6.70
2019-01-20T03:42:51.021Z,7.70
2019-01-20T03:43:51.065Z,9.60
2019-01-20T03:44:51.110Z,7.10
2019-01-20T03:45:51.155Z,9.10
2019-01-20T03:46:51.200Z,7.80
2019-01-20T03:47:51.251Z,11.00
2019-01-20T03:48:51.287Z,9.40
2019-01-20T03:49:51.333Z,9.30
2019-01-20T03:50:51.378Z,8.90
2019-01-20T03:51:51.422Z,9.00
2019-01-20T03:52:51.469Z,6.70
2019-01-20T03:53:51.531Z,6.70
2019-01-20T03:54:51.559Z,7.90
2019-01-20T03:55:51.602Z,9.00
2019-01-20T03:56:51.648Z,9.50
2019-01-20T03:57:51.692Z,7.20
2019-01-20T03:58:51.736Z,7.60
2019-01-20T03:59:51.781Z,9.30
2019-01-20T04:00:51.825Z,8.40
2019-01-20T04:01:51.869Z,7.50
2019-01-20T04:02:51.915Z,12.80
2019-01-20T04:03:51.959Z,7.90
2019-01-20T04:04:52.003Z,9.70
2019-01-20T04:05:52.049Z,8.80
2019-01-20T04:06:52.094Z,7.50
2019-01-20T04:07:53.151Z,7.60
2019-01-20T04:08:52.184Z,8.60
2019-01-20T04:09:52.227Z,8.10
2019-01-20T04:10:52.273Z,8.40
2019-01-20T04:11:52.680Z,9.00
2019-01-20T04:12:52.363Z,7.30
2019-01-20T04:13:52.410Z,8.50
2019-01-20T04:14:52.453Z,8.00
2019-01-20T04:15:52.497Z,9.00
2019-01-20T04:16:52.542Z,9.40
2019-01-20T04:17:52.586Z,7.30
2019-01-20T04:18:52.631Z,6.60
2019-01-20T04:19:52.680Z,9.80
2019-01-20T04:20:52.718Z,9.40
2019-01-20T04:21:52.764Z,7.70
2019-01-20T04:22:52.812Z,8.90
2019-01-20T04:23:52.854Z,7.90
2019-01-20T04:24:52.898Z,8.20
2019-01-20T04:25:52.944Z,7.20
2019-01-20T04:26:52.989Z,10.70
2019-01-20T04:27:53.031Z,8.10
2019-01-20T04:28:53.079Z,10.60
2019-01-20T04:29:53.121Z,7.40
2019-01-20T04:30:53.167Z,7.90
2019-01-20T04:31:53.210Z,8.70
2019-01-20T04:32:53.256Z,10.80
2019-01-20T04:33:53.298Z,10.60
2019-01-20T04:34:53.347Z,7.60
2019-01-20T04:35:53.391Z,9.60
2019-01-20T04:36:53.432Z,8.80
2019-01-20T04:37:53.476Z,9.30
2019-01-20T04:38:53.521Z,10.10
2019-01-20T04:39:53.566Z,7.60
2019-01-20T04:40:53.611Z,8.50
2019-01-20T04:41:53.655Z,8.80
2019-01-20T04:42:53.701Z,10.20
2019-01-20T04:43:53.745Z,8.40
2019-01-20T04:44:53.787Z,7.10
2019-01-20T04:45:53.833Z,8.40
2019-01-20T04:46:53.877Z,7.60
2019-01-20T04:47:53.922Z,8.10
2019-01-20T04:48:53.966Z,8.70
2019-01-20T04:49:54.012Z,8.60
2019-01-20T04:50:54.054Z,8.00
2019-01-20T04:51:54.102Z,8.10
2019-01-20T04:52:54.144Z,8.90
2019-01-20T04:53:54.188Z,9.20
2019-01-20T04:54:54.233Z,8.70
2019-01-20T04:55:54.277Z,9.30
2019-01-20T04:56:54.321Z,8.50
2019-01-20T04:57:54.365Z,8.20
2019-01-20T04:58:54.410Z,9.10
2019-01-20T04:59:54.456Z,9.90
2019-01-20T05:00:54.542Z,10.00
2019-01-20T05:01:54.544Z,7.30
2019-01-20T05:02:54.587Z,10.10
2019-01-20T05:03:54.634Z,5.70
2019-01-20T05:04:54.676Z,8.70
2019-01-20T05:05:54.721Z,7.50
2019-01-20T05:06:54.774Z,7.60
2019-01-20T05:07:54.819Z,9.60
2019-01-20T05:08:54.859Z,9.60
2019-01-20T05:09:54.902Z,10.30
2019-01-20T05:10:54.943Z,7.90
2019-01-20T05:11:54.988Z,10.20
2019-01-20T05:12:55.032Z,8.20
2019-01-20T05:13:55.080Z,8.00
2019-01-20T05:14:55.121Z,9.50
2019-01-20T05:15:55.165Z,8.10
2019-01-20T05:16:55.212Z,10.60
2019-01-20T05:17:55.254Z,9.10
2019-01-20T05:18:55.299Z,8.80
2019-01-20T05:19:55.343Z,7.50
2019-01-20T05:20:55.386Z,8.70
2019-01-20T05:21:55.430Z,7.10
2019-01-20T05:22:55.476Z,9.80
2019-01-20T05:23:55.520Z,8.70
2019-01-20T05:24:55.564Z,8.40
2019-01-20T05:25:55.607Z,7.30
2019-01-20T05:26:55.653Z,9.10
2019-01-20T05:27:55.698Z,8.00
2019-01-20T05:28:55.741Z,9.30
2019-01-20T05:29:55.789Z,7.40
2019-01-20T05:30:55.831Z,8.30
2019-01-20T05:31:55.879Z,8.20
2019-01-20T05:32:55.933Z,11.10
2019-01-20T05:33:55.965Z,13.30
2019-01-20T05:34:57.023Z,10.50
2019-01-20T05:35:56.053Z,12.10
2019-01-20T05:36:56.097Z,8.60
2019-01-20T05:37:56.142Z,8.60
2019-01-20T05:38:56.857Z,9.00
2019-01-20T05:39:56.233Z,12.20
2019-01-20T05:40:56.273Z,8.60
2019-01-20T05:41:56.321Z,9.00
2019-01-20T05:42:56.364Z,6.60
2019-01-20T05:43:56.408Z,10.40
2019-01-20T05:44:56.453Z,6.90
2019-01-20T05:45:56.497Z,8.00
2019-01-20T05:46:56.543Z,7.90
2019-01-20T05:47:56.631Z,9.50
2019-01-20T05:48:56.630Z,10.10
2019-01-20T05:49:56.674Z,7.30
2019-01-20T05:50:56.719Z,11.80
2019-01-20T05:51:56.764Z,11.50
2019-01-20T05:52:56.806Z,10.20
2019-01-20T05:53:56.854Z,8.50
2019-01-20T05:54:56.897Z,7.20
2019-01-20T05:55:56.942Z,10.90
2019-01-20T05:56:56.984Z,10.10
2019-01-20T05:57:57.030Z,11.90
2019-01-20T05:58:57.078Z,8.80
2019-01-20T05:59:57.451Z,7.70
2019-01-20T06:00:57.165Z,9.10
2019-01-20T06:01:57.207Z,7.00
2019-01-20T06:02:57.252Z,8.40
2019-01-20T06:03:57.298Z,6.50
2019-01-20T06:04:57.340Z,6.70
2019-01-20T06:05:57.385Z,6.60
2019-01-20T06:06:57.429Z,8.20
2019-01-20T06:07:57.473Z,8.20
2019-01-20T06:08:58.930Z,7.80
2019-01-20T06:09:57.561Z,8.50
2019-01-20T06:10:57.607Z,7.10
2019-01-20T06:11:57.650Z,10.50
2019-01-20T06:12:57.692Z,7.30
2019-01-20T06:13:57.738Z,7.90
2019-01-20T06:14:57.782Z,9.00
2019-01-20T06:15:57.826Z,8.30
2019-01-20T06:16:57.912Z,10.40
2019-01-20T06:17:57.917Z,8.50
2019-01-20T06:18:57.958Z,10.00
2019-01-20T06:19:58.003Z,9.50
2019-01-20T06:20:58.050Z,9.60
2019-01-20T06:21:58.091Z,8.20
2019-01-20T06:22:58.134Z,7.20
2019-01-20T06:23:58.182Z,9.20
2019-01-20T06:24:58.222Z,8.80
2019-01-20T06:25:58.268Z,9.90
2019-01-20T06:26:58.323Z,9.50
2019-01-20T06:27:58.356Z,8.40
2019-01-20T06:28:58.401Z,8.60
2019-01-20T06:29:58.445Z,7.30
2019-01-20T06:30:58.490Z,8.40
2019-01-20T06:31:58.534Z,7.60
2019-01-20T06:32:58.576Z,10.40
2019-01-20T06:33:58.621Z,6.80
2019-01-20T06:34:58.667Z,7.90
2019-01-20T06:35:58.709Z,7.00
2019-01-20T06:36:58.758Z,9.50
2019-01-20T06:37:58.800Z,8.20
2019-01-20T06:38:58.847Z,10.20
2019-01-20T06:39:58.887Z,8.20
2019-01-20T06:40:58.935Z,7.50
2019-01-20T06:41:58.976Z,9.00
2019-01-20T06:43:02.069Z,12.30
2019-01-20T06:43:59.064Z,7.60
2019-01-20T06:44:59.108Z,10.20
2019-01-20T06:45:59.152Z,7.40
2019-01-20T06:46:59.199Z,6.20
2019-01-20T06:47:59.242Z,6.70
2019-01-20T06:48:59.285Z,8.90
2019-01-20T06:49:59.333Z,8.60
2019-01-20T06:50:59.374Z,8.60
2019-01-20T06:51:59.417Z,9.30
2019-01-20T06:52:59.462Z,7.20
2019-01-20T06:53:59.507Z,8.40
2019-01-20T06:54:59.552Z,6.50
2019-01-20T06:55:59.595Z,9.40
2019-01-20T06:56:59.639Z,9.60
2019-01-20T06:57:59.685Z,9.90
2019-01-20T06:58:59.728Z,10.90
2019-01-20T06:59:59.773Z,8.10
2019-01-20T07:00:59.817Z,8.20
2019-01-20T07:01:59.861Z,8.50
2019-01-20T07:02:59.906Z,7.00
2019-01-20T07:03:59.950Z,8.00
2019-01-20T07:04:59.996Z,6.40
2019-01-20T07:06:00.037Z,7.00
2019-01-20T07:07:00.084Z,8.40
2019-01-20T07:08:00.128Z,9.30
2019-01-20T07:09:00.172Z,9.20
2019-01-20T07:10:00.269Z,7.50
2019-01-20T07:11:00.261Z,6.80
2019-01-20T07:12:00.304Z,9.20
2019-01-20T07:13:00.351Z,7.50
2019-01-20T07:14:00.397Z,11.10
2019-01-20T07:15:00.439Z,10.30
2019-01-20T07:16:00.482Z,8.00
2019-01-20T07:17:00.528Z,7.90
2019-01-20T07:18:00.572Z,8.60
2019-01-20T07:19:00.616Z,10.10
2019-01-20T07:20:00.668Z,10.00
2019-01-20T07:21:00.707Z,9.10
2019-01-20T07:22:00.749Z,10.50
2019-01-20T07:23:00.795Z,8.50
2019-01-20T07:24:00.839Z,8.80
2019-01-20T07:25:00.883Z,11.10
2019-01-20T07:26:00.926Z,14.50
2019-01-20T07:27:00.973Z,9.70
2019-01-20T07:28:01.016Z,11.30
2019-01-20T07:29:01.061Z,10.20
2019-01-20T07:30:01.109Z,9.40
2019-01-20T07:31:01.151Z,8.20
2019-01-20T07:32:01.196Z,11.40
2019-01-20T07:33:01.238Z,8.30
2019-01-20T07:34:01.285Z,8.90
2019-01-20T07:35:01.327Z,12.20
2019-01-20T07:36:01.372Z,9.40
2019-01-20T07:37:01.417Z,11.00
2019-01-20T07:38:01.463Z,11.30
2019-01-20T07:39:01.506Z,8.60
2019-01-20T07:40:01.552Z,11.50
2019-01-20T07:41:01.594Z,8.90
2019-01-20T07:42:01.640Z,11.50
2019-01-20T07:43:01.683Z,8.90
2019-01-20T07:44:01.726Z,9.30
2019-01-20T07:45:01.773Z,10.30
2019-01-20T07:46:01.815Z,8.00
2019-01-20T07:47:01.861Z,11.30
2019-01-20T07:48:01.905Z,11.00
2019-01-20T07:49:01.948Z,11.90
2019-01-20T07:50:02.406Z,8.80
2019-01-20T07:51:02.044Z,9.50
2019-01-20T07:52:02.082Z,11.20
2019-01-20T07:53:02.124Z,10.40
2019-01-20T07:54:02.169Z,8.10
2019-01-20T07:55:02.221Z,6.90
2019-01-20T07:56:02.257Z,8.50
2019-01-20T07:57:02.302Z,11.00
2019-01-20T07:58:02.346Z,8.50
2019-01-20T07:59:02.389Z,8.60
2019-01-20T08:00:02.433Z,8.60
2019-01-20T08:01:02.476Z,6.30
2019-01-20T08:02:02.520Z,7.30
2019-01-20T08:03:02.565Z,9.30
2019-01-20T08:04:02.610Z,9.20
2019-01-20T08:05:02.654Z,6.80
2019-01-20T08:06:02.698Z,9.40
2019-01-20T08:07:02.743Z,8.90
2019-01-20T08:08:02.787Z,9.20
2019-01-20T08:09:02.830Z,7.60
2019-01-20T08:10:02.875Z,9.00
2019-01-20T08:11:02.919Z,8.80
2019-01-20T08:12:02.966Z,9.30
2019-01-20T08:13:03.006Z,8.20
2019-01-20T08:14:03.051Z,7.30
2019-01-20T08:15:03.097Z,6.80
2019-01-20T08:16:03.144Z,8.70
2019-01-20T08:17:03.183Z,9.70
2019-01-20T08:18:03.228Z,8.70
2019-01-20T08:19:03.271Z,9.30
2019-01-20T08:20:03.315Z,9.60
2019-01-20T08:21:03.360Z,9.10
2019-01-20T08:22:03.404Z,6.20
2019-01-20T08:23:03.448Z,8.30
2019-01-20T08:24:03.492Z,6.30
2019-01-20T08:25:03.537Z,7.40
2019-01-20T08:26:03.583Z,9.50
2019-01-20T08:27:03.626Z,9.20
2019-01-20T08:28:03.669Z,7.40
2019-01-20T08:29:03.713Z,7.50
2019-01-20T08:30:03.758Z,9.40
2019-01-20T08:31:03.803Z,10.90
2019-01-20T08:32:03.847Z,10.00
2019-01-20T08:33:03.890Z,8.40
2019-01-20T08:34:03.935Z,8.50
2019-01-20T08:35:03.980Z,6.70
2019-01-20T08:36:04.024Z,9.20
2019-01-20T08:37:04.363Z,9.30
2019-01-20T08:38:04.112Z,8.60
2019-01-20T08:39:04.157Z,8.20
2019-01-20T08:40:04.202Z,9.10
2019-01-20T08:41:04.245Z,9.40
2019-01-20T08:42:04.290Z,10.10
2019-01-20T08:43:04.336Z,8.10
2019-01-20T08:44:04.379Z,9.30
2019-01-20T08:45:04.425Z,8.70
2019-01-20T08:46:04.467Z,10.90
2019-01-20T08:47:04.512Z,9.10
2019-01-20T08:48:04.558Z,13.00
2019-01-20T08:49:04.604Z,8.00
2019-01-20T08:50:04.647Z,10.20
2019-01-20T08:51:04.691Z,8.50
2019-01-20T08:52:04.736Z,6.70
2019-01-20T08:53:04.780Z,9.50
2019-01-20T08:54:04.825Z,11.00
2019-01-20T08:55:04.871Z,8.90
2019-01-20T08:56:04.915Z,9.30
2019-01-20T08:57:04.962Z,9.70
2019-01-20T08:58:05.007Z,8.90
2019-01-20T08:59:05.049Z,8.10
2019-01-20T09:00:05.095Z,8.20
2019-01-20T09:01:05.139Z,11.20
2019-01-20T09:02:05.185Z,9.70
2019-01-20T09:03:05.230Z,11.80
2019-01-20T09:04:05.276Z,8.80
2019-01-20T09:05:05.319Z,9.80
2019-01-20T09:06:05.365Z,9.60
2019-01-20T09:07:05.411Z,9.30
2019-01-20T09:08:05.456Z,8.80
2019-01-20T09:09:05.501Z,10.90
2019-01-20T09:10:05.548Z,10.70
2019-01-20T09:11:05.592Z,9.50
2019-01-20T09:12:05.638Z,10.10
2019-01-20T09:13:05.684Z,9.90
2019-01-20T09:14:05.728Z,9.30
2019-01-20T09:15:05.776Z,6.90
2019-01-20T09:16:05.821Z,9.40
2019-01-20T09:17:05.870Z,7.90
2019-01-20T09:18:05.912Z,9.80
2019-01-20T09:19:05.957Z,8.90
2019-01-20T09:20:06.004Z,8.90
2019-01-20T09:21:06.048Z,11.00
2019-01-20T09:22:06.095Z,7.80
2019-01-20T09:23:06.140Z,10.40
2019-01-20T09:24:06.187Z,8.40
2019-01-20T09:25:06.231Z,7.90
2019-01-20T09:26:06.278Z,8.90
2019-01-20T09:27:06.325Z,10.60
2019-01-20T09:28:06.371Z,8.10
2019-01-20T09:29:06.417Z,7.10
2019-01-20T09:30:06.470Z,11.40
2019-01-20T09:31:06.509Z,9.80
2019-01-20T09:32:06.556Z,12.40
2019-01-20T09:33:06.607Z,7.70
2019-01-20T09:34:06.647Z,8.40
2019-01-20T09:35:06.694Z,6.70
2019-01-20T09:36:06.740Z,8.40
2019-01-20T09:37:06.786Z,7.40
2019-01-20T09:38:06.834Z,7.10
2019-01-20T09:39:07.527Z,7.00
2019-01-20T09:40:06.927Z,7.30
2019-01-20T09:41:07.602Z,8.60
2019-01-20T09:42:07.336Z,9.60
2019-01-20T09:43:07.066Z,9.00
2019-01-20T09:44:07.114Z,9.40
2019-01-20T09:45:07.159Z,9.50
2019-01-20T09:46:07.207Z,10.30
2019-01-20T09:47:07.254Z,12.00
2019-01-20T09:48:07.299Z,9.60
2019-01-20T09:49:07.345Z,11.00
2019-01-20T09:50:07.393Z,9.50
2019-01-20T09:51:07.441Z,9.50
2019-01-20T09:52:07.485Z,7.10
2019-01-20T09:53:07.536Z,9.40
2019-01-20T09:54:07.578Z,10.50
2019-01-20T09:55:07.625Z,11.10
2019-01-20T09:56:07.672Z,10.20
2019-01-20T09:57:07.719Z,8.40
2019-01-20T09:58:07.766Z,8.40
2019-01-20T09:59:07.810Z,9.00
2019-01-20T10:00:08.301Z,11.90
2019-01-20T10:01:07.904Z,7.10
2019-01-20T10:02:07.950Z,9.70
2019-01-20T10:03:07.996Z,12.30
2019-01-20T10:04:08.044Z,8.80
2019-01-20T10:05:08.089Z,10.80
2019-01-20T10:06:08.137Z,10.10
2019-01-20T10:07:08.182Z,9.20
2019-01-20T10:08:08.229Z,10.70
2019-01-20T10:09:08.274Z,10.40
2019-01-20T10:10:09.009Z,9.50
2019-01-20T10:11:08.370Z,10.30
2019-01-20T10:12:08.415Z,10.90
2019-01-20T10:13:08.462Z,9.00
2019-01-20T10:14:08.508Z,10.60
2019-01-20T10:15:08.556Z,8.90
2019-01-20T10:16:08.615Z,9.70
2019-01-20T10:17:09.059Z,10.60
2019-01-20T10:18:08.694Z,10.60
2019-01-20T10:19:08.742Z,10.90
2019-01-20T10:20:08.989Z,11.60
2019-01-20T10:21:08.833Z,12.40
2019-01-20T10:22:08.882Z,10.00
2019-01-20T10:23:08.928Z,9.40
2019-01-20T10:24:08.976Z,12.30
2019-01-20T10:25:15.001Z,9.70
2019-01-20T10:26:09.079Z,11.10
2019-01-20T10:27:09.117Z,11.40
2019-01-20T10:28:09.164Z,10.90
2019-01-20T10:29:09.211Z,12.80
2019-01-20T10:30:09.258Z,10.80
2019-01-20T10:31:09.310Z,11.60
2019-01-20T10:32:09.353Z,11.60
2019-01-20T10:33:09.402Z,15.30
2019-01-20T10:34:09.445Z,14.00
2019-01-20T10:35:09.494Z,12.50
2019-01-20T10:36:09.540Z,13.60
2019-01-20T10:37:09.588Z,16.40
2019-01-20T10:38:09.634Z,16.40
2019-01-20T10:39:09.683Z,15.90
2019-01-20T10:40:09.730Z,13.10
2019-01-20T10:41:09.777Z,11.50
2019-01-20T10:42:09.824Z,13.50
2019-01-20T10:43:09.872Z,11.50
2019-01-20T10:44:09.918Z,10.20
2019-01-20T10:45:09.965Z,14.10
2019-01-20T10:46:10.015Z,11.20
2019-01-20T10:47:10.060Z,11.30
2019-01-20T10:48:10.108Z,11.40
2019-01-20T10:49:10.156Z,15.30
2019-01-20T10:50:10.203Z,9.90
2019-01-20T10:51:10.250Z,10.00
2019-01-20T10:52:10.301Z,13.20
2019-01-20T10:53:10.345Z,13.60
2019-01-20T10:54:10.392Z,10.60
2019-01-20T10:55:10.443Z,12.60
2019-01-20T10:56:10.488Z,11.90
2019-01-20T10:57:10.535Z,13.30
2019-01-20T10:58:10.582Z,10.60
2019-01-20T10:59:10.630Z,10.50
2019-01-20T11:00:10.677Z,12.10
2019-01-20T11:01:10.724Z,12.00
2019-01-20T11:02:10.775Z,12.00
2019-01-20T11:03:10.822Z,14.00
2019-01-20T11:04:10.867Z,12.10
2019-01-20T11:05:10.916Z,11.60
2019-01-20T11:06:10.962Z,14.00
2019-01-20T11:07:11.011Z,10.30
2019-01-20T11:08:11.060Z,12.40
2019-01-20T11:09:11.107Z,12.40
2019-01-20T11:10:11.156Z,10.60
2019-01-20T11:11:11.203Z,14.00
2019-01-20T11:12:11.251Z,13.10
2019-01-20T11:13:11.300Z,12.50
2019-01-20T11:14:11.345Z,11.80
2019-01-20T11:15:11.393Z,12.10
2019-01-20T11:16:11.443Z,12.00
2019-01-20T11:17:11.490Z,11.80
2019-01-20T11:18:11.537Z,13.60
2019-01-20T11:19:11.586Z,10.10
2019-01-20T11:20:11.635Z,12.30
2019-01-20T11:21:11.682Z,10.70
2019-01-20T11:22:11.730Z,10.00
2019-01-20T11:23:11.779Z,11.90
2019-01-20T11:24:11.826Z,13.20
2019-01-20T11:25:11.875Z,12.80
2019-01-20T11:26:11.933Z,11.70
2019-01-20T11:27:11.973Z,11.90
2019-01-20T11:28:12.021Z,10.90
2019-01-20T11:29:12.071Z,12.60
2019-01-20T11:30:12.121Z,15.20
2019-01-20T11:31:12.165Z,12.10
2019-01-20T11:32:12.215Z,12.60
2019-01-20T11:33:12.259Z,13.50
2019-01-20T11:34:12.308Z,12.00
2019-01-20T11:35:12.357Z,11.90
2019-01-20T11:36:12.406Z,11.60
2019-01-20T11:37:12.482Z,14.60
2019-01-20T11:38:12.501Z,16.20
2019-01-20T11:39:12.550Z,16.30
2019-01-20T11:40:12.600Z,14.70
2019-01-20T11:41:12.646Z,12.80
2019-01-20T11:42:12.694Z,15.10
2019-01-20T11:43:20.705Z,15.60
2019-01-20T11:44:17.164Z,13.30
2019-01-20T11:45:12.840Z,15.50
2019-01-20T11:46:12.888Z,14.70
2019-01-20T11:47:13.595Z,15.40
2019-01-20T11:48:14.374Z,14.70
2019-01-20T11:49:13.717Z,15.10
2019-01-20T11:50:13.714Z,15.60
2019-01-20T11:51:13.713Z,15.90
2019-01-20T11:52:13.566Z,14.50
2019-01-20T11:53:13.650Z,14.90
2019-01-20T11:54:13.276Z,18.10
2019-01-20T11:55:13.323Z,14.70
2019-01-20T11:56:13.376Z,16.40
2019-01-20T11:57:13.421Z,12.40
2019-01-20T11:58:13.469Z,15.30
2019-01-20T11:59:13.518Z,17.60
2019-01-20T12:00:13.568Z,17.00
2019-01-20T12:01:13.615Z,15.50
2019-01-20T12:02:14.158Z,18.30
2019-01-20T12:03:13.713Z,14.50
2019-01-20T12:04:13.763Z,15.40
2019-01-20T12:05:13.812Z,14.60
2019-01-20T12:06:13.860Z,17.70
2019-01-20T12:07:13.909Z,13.30
2019-01-20T12:08:13.957Z,14.80
2019-01-20T12:09:14.008Z,18.10
2019-01-20T12:10:14.060Z,14.20
2019-01-20T12:11:14.104Z,12.60
2019-01-20T12:12:14.155Z,15.00
2019-01-20T12:13:14.202Z,14.20
2019-01-20T12:14:14.254Z,13.90
2019-01-20T12:15:14.301Z,13.60
2019-01-20T12:16:14.352Z,15.10
2019-01-20T12:17:14.400Z,14.60
2019-01-20T12:18:14.449Z,13.90
2019-01-20T12:19:14.504Z,14.50
2019-01-20T12:20:14.549Z,13.50
2019-01-20T12:21:14.597Z,15.80
2019-01-20T12:22:14.646Z,14.10
2019-01-20T12:23:14.695Z,16.20
2019-01-20T12:24:14.796Z,13.20
2019-01-20T12:25:14.795Z,14.20
2019-01-20T12:26:14.843Z,15.80
2019-01-20T12:27:14.894Z,18.40
2019-01-20T12:28:14.944Z,14.80
2019-01-20T12:29:15.041Z,14.20
2019-01-20T12:30:15.042Z,13.30
2019-01-20T12:31:15.091Z,18.50
2019-01-20T12:32:15.141Z,15.90
2019-01-20T12:33:15.196Z,14.50
2019-01-20T12:34:15.241Z,15.50
2019-01-20T12:35:15.290Z,15.00
2019-01-20T12:36:15.346Z,20.30
2019-01-20T12:37:15.388Z,16.80
2019-01-20T12:38:15.439Z,14.80
2019-01-20T12:39:15.492Z,17.40
2019-01-20T12:40:15.541Z,14.30
2019-01-20T12:41:15.589Z,16.20
2019-01-20T12:42:15.638Z,13.90
2019-01-20T12:43:15.689Z,15.50
2019-01-20T12:44:15.738Z,16.90
2019-01-20T12:45:15.788Z,14.00
2019-01-20T12:46:15.839Z,13.80
2019-01-20T12:47:15.890Z,14.90
2019-01-20T12:48:15.937Z,15.00
2019-01-20T12:49:15.986Z,15.10
2019-01-20T12:50:16.038Z,16.80
2019-01-20T12:51:16.087Z,14.70
2019-01-20T12:52:16.137Z,14.20
2019-01-20T12:53:16.188Z,14.70
2019-01-20T12:54:16.238Z,15.20
2019-01-20T12:55:16.288Z,18.40
2019-01-20T12:56:16.340Z,19.00
2019-01-20T12:57:16.388Z,20.00
2019-01-20T12:58:16.439Z,15.80
2019-01-20T12:59:16.491Z,15.70
2019-01-20T13:00:16.541Z,18.30
2019-01-20T13:01:16.590Z,16.90
2019-01-20T13:02:16.640Z,16.50
2019-01-20T13:03:16.690Z,16.60
2019-01-20T13:04:16.740Z,17.00
2019-01-20T13:05:16.841Z,19.80
2019-01-20T13:06:16.841Z,17.10
2019-01-20T13:07:16.891Z,18.70
2019-01-20T13:08:16.942Z,19.30
2019-01-20T13:09:16.995Z,19.70
2019-01-20T13:10:17.041Z,18.00